Time;durP1;ratioP1;P1;durP2;ratioP2;P2;SDS_P1;SDS_P2;PMS_P1;PMS_P2;Temp;Humidity;BMP_temperature;BMP_pressure;BME280_temperature;BME280_humidity;BME280_pressure;Samples;Min_cycle;Max_cycle;Signal;HPM_P1;HPM_P2
2022/07/14 00:00:48;;;;;;;2.20;2.10;;;25.30;42.00;;;;;;20768;6788;117796;-86
2022/07/14 00:03:24;;;;;;;2.43;2.00;;;25.20;41.60;;;;;;20520;6788;284782;-86
2022/07/14 00:06:00;;;;;;;3.90;2.20;;;25.30;41.60;;;;;;20770;6788;117892;-86
2022/07/14 00:08:36;;;;;;;2.30;2.10;;;25.30;41.60;;;;;;20525;6788;307419;-86
2022/07/14 00:11:14;;;;;;;1.70;1.60;;;25.40;41.90;;;;;;20767;6788;119358;-85
2022/07/14 00:13:48;;;;;;;4.20;2.00;;;25.30;41.70;;;;;;20470;6788;312300;-86
2022/07/14 00:16:24;;;;;;;2.27;1.80;;;25.40;41.90;;;;;;20736;6788;121125;-87
2022/07/14 00:19:00;;;;;;;2.03;1.90;;;25.40;41.70;;;;;;20548;6787;308455;-86
2022/07/14 00:21:36;;;;;;;2.10;1.90;;;25.50;41.70;;;;;;20732;6787;119103;-86
2022/07/14 00:24:12;;;;;;;2.00;1.90;;;25.40;41.60;;;;;;20638;6782;117704;-86
2022/07/14 00:26:47;;;;;;;2.30;2.07;;;25.10;41.80;;;;;;20769;6782;117378;-86
2022/07/14 00:29:23;;;;;;;2.70;1.90;;;24.90;42.00;;;;;;20546;6787;310789;-85
2022/07/14 00:31:58;;;;;;;2.40;1.90;;;25.20;42.30;;;;;;20809;6787;117031;-87
2022/07/14 00:34:34;;;;;;;2.27;2.07;;;25.10;42.00;;;;;;20438;6777;283872;-86
2022/07/14 00:37:09;;;;;;;3.45;1.87;;;25.30;42.20;;;;;;20553;6787;278329;-86
2022/07/14 00:39:55;;;;;;;2.10;2.00;;;25.60;41.70;;;;;;20598;6787;306959;-86
2022/07/14 00:42:37;;;;;;;4.13;2.00;;;25.80;41.50;;;;;;20512;6788;323713;-86
2022/07/14 00:45:16;;;;;;;2.40;2.20;;;25.60;41.20;;;;;;20592;6787;117593;-86
2022/07/14 00:47:52;;;;;;;2.12;1.70;;;25.60;41.20;;;;;;20597;6772;337383;-86
2022/07/14 00:50:30;;;;;;;2.00;1.90;;;25.60;41.30;;;;;;20795;6772;117064;-87
2022/07/14 00:53:06;;;;;;;2.30;1.80;;;25.40;41.40;;;;;;20579;6772;278237;-85
2022/07/14 00:55:42;;;;;;;1.70;1.60;;;25.40;41.60;;;;;;20721;6787;116461;-86
2022/07/14 00:58:18;;;;;;;3.60;1.80;;;25.20;42.30;;;;;;20522;6787;309620;-86
2022/07/14 01:00:55;;;;;;;1.90;1.80;;;25.30;42.00;;;;;;20560;6788;308494;-86
2022/07/14 01:03:31;;;;;;;2.10;1.95;;;25.50;41.90;;;;;;20555;6787;278953;-85
2022/07/14 01:06:06;;;;;;;2.10;1.80;;;25.60;41.40;;;;;;20609;6787;307795;-85
2022/07/14 01:08:43;;;;;;;2.50;1.93;;;25.70;41.30;;;;;;20584;6777;307818;-85
2022/07/14 01:11:18;;;;;;;3.13;1.80;;;25.70;41.20;;;;;;20779;6787;119744;-85
2022/07/14 01:13:54;;;;;;;2.07;1.83;;;25.40;41.50;;;;;;20750;6778;116236;-86
2022/07/14 01:16:30;;;;;;;2.33;2.23;;;25.00;42.10;;;;;;20798;6787;119668;-85
2022/07/14 01:19:05;;;;;;;2.53;1.87;;;24.60;42.60;;;;;;20862;6787;117074;-85
2022/07/14 01:21:41;;;;;;;1.90;1.70;;;24.30;43.00;;;;;;20844;6777;117681;-86
2022/07/14 01:24:19;;;;;;;1.70;1.60;;;24.10;43.30;;;;;;20689;6788;116727;-86
2022/07/14 01:26:55;;;;;;;1.90;1.80;;;23.90;43.50;;;;;;20664;6773;305625;-85
2022/07/14 01:29:30;;;;;;;2.20;1.80;;;24.20;43.30;;;;;;20661;6773;305408;-86
2022/07/14 01:32:07;;;;;;;2.43;1.80;;;24.60;42.90;;;;;;20883;6773;117213;-86
2022/07/14 01:34:43;;;;;;;2.10;1.90;;;24.50;43.40;;;;;;20704;6772;119638;-86
2022/07/14 01:37:20;;;;;;;2.17;2.00;;;24.20;43.50;;;;;;20669;6772;307415;-86
2022/07/14 01:39:55;;;;;;;1.87;1.77;;;24.30;43.10;;;;;;20877;6772;116630;-86
2022/07/14 01:42:31;;;;;;;1.73;1.63;;;24.20;42.90;;;;;;20644;6772;305950;-86
2022/07/14 01:45:06;;;;;;;1.80;1.70;;;24.30;42.70;;;;;;20714;6772;116923;-86
2022/07/14 01:47:42;;;;;;;2.10;1.62;;;24.10;42.40;;;;;;20675;6772;277404;-86
2022/07/14 01:50:18;;;;;;;2.00;1.77;;;24.30;42.20;;;;;;20869;6772;117708;-86
2022/07/14 01:53:03;;;;;;;1.63;1.53;;;24.10;42.20;;;;;;20637;6772;307078;-86
2022/07/14 01:55:29;;;;;;;6.18;2.00;;;24.20;42.80;;;;;;20596;6772;307819;-88
2022/07/14 01:58:04;;;;;;;2.07;1.80;;;24.50;42.80;;;;;;20818;6772;117127;-86
2022/07/14 02:00:43;;;;;;;1.80;1.70;;;24.30;42.90;;;;;;20800;6772;117307;-86
2022/07/14 02:03:15;;;;;;;1.90;1.80;;;23.90;43.40;;;;;;20573;6772;279035;-86
2022/07/14 02:05:51;;;;;;;2.00;1.87;;;24.10;44.30;;;;;;20602;6772;289256;-90
2022/07/14 02:08:28;;;;;;;2.43;1.80;;;24.30;44.10;;;;;;20790;6772;120879;-86
2022/07/14 02:14:00;;;;;;;1.80;1.70;;;23.70;44.40;;;;;;20720;6773;117663;-85
2022/07/14 02:16:36;;;;;;;1.80;1.70;;;23.60;45.60;;;;;;20576;6773;296423;-86
2022/07/14 02:19:12;;;;;;;1.77;1.67;;;23.60;45.60;;;;;;20812;6773;117254;-86
2022/07/14 02:21:48;;;;;;;2.30;2.00;;;23.50;45.20;;;;;;20583;6773;306912;-86
2022/07/14 02:24:23;;;;;;;2.47;1.90;;;23.80;45.70;;;;;;20686;6773;121283;-86
2022/07/14 02:27:00;;;;;;;2.20;2.10;;;23.60;45.30;;;;;;20808;6773;117264;-88
2022/07/14 02:29:35;;;;;;;1.63;1.53;;;23.30;45.60;;;;;;20808;6773;119338;-86
2022/07/14 02:32:12;;;;;;;2.03;1.93;;;23.10;45.80;;;;;;20795;6773;117648;-86
2022/07/14 02:34:48;;;;;;;4.70;2.03;;;22.90;46.00;;;;;;20666;6773;121669;-86
2022/07/14 02:37:23;;;;;;;2.30;2.07;;;22.80;46.20;;;;;;20814;6773;118398;-85
2022/07/14 02:40:00;;;;;;;1.83;1.73;;;22.70;46.50;;;;;;20809;6773;117221;-86
2022/07/14 02:42:35;;;;;;;2.27;2.07;;;22.60;46.60;;;;;;20568;6773;278968;-86
2022/07/14 02:45:10;;;;;;;3.33;2.10;;;22.90;46.90;;;;;;20434;6773;280623;-86
2022/07/14 02:47:47;;;;;;;3.30;2.00;;;23.30;45.90;;;;;;20601;6772;281082;-86
2022/07/14 02:50:23;;;;;;;2.83;2.08;;;23.70;45.10;;;;;;20587;6772;305993;-86
2022/07/14 02:52:58;;;;;;;2.93;2.07;;;23.90;44.50;;;;;;20795;6772;119748;-86
2022/07/14 02:55:35;;;;;;;2.97;1.70;;;23.70;44.60;;;;;;20811;6772;117533;-86
2022/07/14 02:58:11;;;;;;;2.17;2.07;;;23.30;44.70;;;;;;20815;6772;118155;-86
2022/07/14 03:00:47;;;;;;;1.77;1.67;;;23.00;44.80;;;;;;20598;6772;297735;-86
2022/07/14 03:03:23;;;;;;;3.25;1.83;;;23.30;44.70;;;;;;20554;6772;339067;-86
2022/07/14 03:05:59;;;;;;;3.17;2.10;;;23.80;43.60;;;;;;20603;6772;279494;-85
2022/07/14 03:08:35;;;;;;;2.07;1.67;;;23.80;43.60;;;;;;20594;6772;280984;-86
2022/07/14 03:11:10;;;;;;;1.87;1.77;;;24.00;43.10;;;;;;20800;6772;119302;-86
2022/07/14 03:13:46;;;;;;;2.00;1.90;;;23.70;43.30;;;;;;20749;6772;117085;-86
2022/07/14 03:16:22;;;;;;;3.00;1.80;;;23.30;44.00;;;;;;20803;6772;119748;-86
2022/07/14 03:18:58;;;;;;;2.70;2.20;;;23.20;45.70;;;;;;20604;6772;307447;-85
2022/07/14 03:21:33;;;;;;;2.30;1.97;;;23.10;45.60;;;;;;20614;6772;276614;-86
2022/07/14 03:24:09;;;;;;;4.00;2.30;;;23.50;45.30;;;;;;20712;6773;120424;-86
2022/07/14 03:26:45;;;;;;;2.30;2.20;;;23.30;45.10;;;;;;20601;6773;302716;-85
2022/07/14 03:29:22;;;;;;;2.47;2.20;;;23.40;45.30;;;;;;20601;6773;336458;-86
2022/07/14 03:31:57;;;;;;;4.07;2.20;;;23.60;45.10;;;;;;20811;6773;118848;-87
2022/07/14 03:34:34;;;;;;;2.45;2.25;;;23.40;45.10;;;;;;20459;6773;303345;-84
2022/07/14 03:37:10;;;;;;;2.20;2.10;;;23.40;45.20;;;;;;20810;6773;118841;-85
2022/07/14 03:39:47;;;;;;;2.30;2.10;;;23.20;45.10;;;;;;20601;6773;308931;-86
2022/07/14 03:42:23;;;;;;;2.97;1.60;;;23.20;45.00;;;;;;20777;6773;118405;-86
2022/07/14 03:44:58;;;;;;;3.60;1.60;;;23.00;45.00;;;;;;20671;6773;117963;-86
2022/07/14 03:47:34;;;;;;;1.70;1.70;;;23.00;45.40;;;;;;20823;6773;117429;-86
2022/07/14 03:50:10;;;;;;;2.00;1.90;;;23.00;45.30;;;;;;20821;6773;118383;-87
2022/07/14 03:52:46;;;;;;;2.20;2.00;;;23.10;45.20;;;;;;20614;6773;335654;-87
2022/07/14 03:55:22;;;;;;;2.33;2.00;;;23.60;44.30;;;;;;20597;6773;307289;-87
2022/07/14 03:57:59;;;;;;;2.10;2.00;;;24.20;43.20;;;;;;20602;6773;307283;-87
2022/07/14 04:00:34;;;;;;;2.05;1.87;;;25.10;41.50;;;;;;20580;6772;306966;-86
2022/07/14 04:03:11;;;;;;;2.70;1.97;;;25.10;41.50;;;;;;20790;6772;119341;-87
2022/07/14 04:05:50;;;;;;;3.03;2.07;;;25.10;41.30;;;;;;20608;6772;277817;-87
2022/07/14 04:08:25;;;;;;;3.10;1.90;;;25.10;41.30;;;;;;20733;6829;119520;-86
2022/07/14 04:11:01;;;;;;;2.47;1.93;;;25.00;41.60;;;;;;20816;6772;117722;-87
2022/07/14 04:13:37;;;;;;;2.00;1.87;;;24.60;42.00;;;;;;20762;6772;119426;-87
2022/07/14 04:16:12;;;;;;;1.90;1.80;;;24.40;42.50;;;;;;20812;6772;153890;-87
2022/07/14 04:18:48;;;;;;;2.17;2.07;;;24.20;42.80;;;;;;20826;6772;117379;-87
2022/07/14 04:21:25;;;;;;;2.17;2.07;;;24.10;43.10;;;;;;20621;6772;309300;-86
2022/07/14 04:24:03;;;;;;;2.20;2.00;;;24.50;43.00;;;;;;20732;6772;117642;-88
2022/07/14 04:26:40;;;;;;;2.40;1.80;;;24.50;42.80;;;;;;20603;6772;291072;-88
2022/07/14 04:29:16;;;;;;;2.07;1.90;;;24.80;42.60;;;;;;20615;6772;280086;-89
2022/07/14 04:31:56;;;;;;;2.00;1.90;;;25.40;41.60;;;;;;20608;6772;306928;-87
2022/07/14 04:34:29;;;;;;;1.80;1.77;;;25.40;41.60;;;;;;20671;6773;118587;-87
2022/07/14 04:37:05;;;;;;;4.33;1.97;;;25.40;41.50;;;;;;20600;6773;312380;-87
2022/07/14 04:39:41;;;;;;;1.87;1.77;;;25.30;41.40;;;;;;20815;6773;118413;-86
2022/07/14 04:42:16;;;;;;;1.60;1.50;;;25.20;41.50;;;;;;20798;6773;119081;-86
2022/07/14 04:44:52;;;;;;;2.10;1.90;;;25.00;41.90;;;;;;20670;6773;119362;-87
2022/07/14 04:47:27;;;;;;;2.00;1.80;;;24.90;42.00;;;;;;20815;6773;117101;-86
2022/07/14 04:52:58;;;;;;;2.80;1.63;;;24.70;41.90;;;;;;20600;6773;276351;-89
2022/07/14 04:55:34;;;;;;;1.65;1.65;;;25.10;40.90;;;;;;20616;6773;311151;-86
2022/07/14 04:58:10;;;;;;;1.80;1.70;;;25.60;40.10;;;;;;20617;6773;276882;-86
2022/07/14 05:00:45;;;;;;;2.57;1.77;;;26.00;39.30;;;;;;20605;6773;277950;-87
2022/07/14 05:03:21;;;;;;;2.60;1.67;;;26.30;39.10;;;;;;20707;6773;119243;-88
2022/07/14 05:05:58;;;;;;;3.57;1.60;;;26.20;39.10;;;;;;20803;6773;118498;-88
2022/07/14 05:08:33;;;;;;;2.60;1.83;;;26.00;39.50;;;;;;20584;6773;306604;-88
2022/07/14 05:11:08;;;;;;;3.93;1.30;;;26.00;39.50;;;;;;20810;6772;118423;-84
2022/07/14 05:13:44;;;;;;;2.13;1.70;;;25.90;39.70;;;;;;20531;6772;309664;-87
2022/07/14 05:16:19;;;;;;;1.83;1.73;;;26.10;39.80;;;;;;20792;6772;127022;-86
2022/07/14 05:18:56;;;;;;;1.70;1.60;;;26.00;40.00;;;;;;20665;6772;304995;-86
2022/07/14 05:21:53;;;;;;;2.42;1.70;;;26.10;39.80;;;;;;20644;6772;335894;-85
2022/07/14 05:24:29;;;;;;;2.97;1.67;;;26.50;39.80;;;;;;20461;6772;285202;-84
2022/07/14 05:27:05;;;;;;;8.20;2.20;;;26.50;39.50;;;;;;20596;6772;280086;-85
2022/07/14 05:29:40;;;;;;;1.87;1.70;;;26.50;39.60;;;;;;20584;6829;306668;-84
2022/07/14 05:32:16;;;;;;;2.47;1.70;;;26.50;40.60;;;;;;20797;6772;117543;-86
2022/07/14 05:34:52;;;;;;;2.30;1.87;;;26.00;40.30;;;;;;20451;6772;309562;-86
2022/07/14 05:37:28;;;;;;;2.73;2.00;;;25.90;41.10;;;;;;20616;6772;307734;-86
2022/07/14 05:40:04;;;;;;;2.25;1.85;;;25.80;41.00;;;;;;20598;6772;306494;-84
2022/07/14 05:42:41;;;;;;;2.73;1.90;;;25.50;41.60;;;;;;20793;6772;119012;-86
2022/07/14 05:45:17;;;;;;;2.63;1.93;;;25.40;41.50;;;;;;20426;6829;308895;-84
2022/07/14 05:47:53;;;;;;;2.27;2.07;;;25.40;42.20;;;;;;20818;6773;117231;-83
2022/07/14 05:50:28;;;;;;;2.13;1.93;;;25.10;42.30;;;;;;20790;6773;117165;-84
2022/07/14 05:53:04;;;;;;;2.43;2.23;;;24.50;43.20;;;;;;20791;6773;117277;-85
2022/07/14 05:55:40;;;;;;;1.80;1.70;;;24.50;43.20;;;;;;20809;6773;117226;-87
2022/07/14 05:58:16;;;;;;;2.93;2.10;;;24.30;43.50;;;;;;20795;6773;118479;-86
2022/07/14 06:00:51;;;;;;;3.70;2.40;;;24.10;43.80;;;;;;20601;6773;291533;-86
2022/07/14 06:03:29;;;;;;;3.20;1.90;;;24.60;43.70;;;;;;20766;6773;117504;-86
2022/07/14 06:06:04;;;;;;;3.80;2.10;;;24.60;43.70;;;;;;20595;6773;306200;-86
2022/07/14 06:08:41;;;;;;;4.75;2.05;;;25.30;42.40;;;;;;20584;6772;277615;-86
2022/07/14 06:11:16;;;;;;;5.75;2.15;;;25.30;42.30;;;;;;20580;6773;276828;-86
2022/07/14 06:13:52;;;;;;;2.90;2.03;;;25.70;41.80;;;;;;20594;6773;338863;-90
2022/07/14 06:16:29;;;;;;;6.57;2.10;;;25.80;41.60;;;;;;20776;6773;120248;-87
2022/07/14 06:19:05;;;;;;;2.00;1.90;;;25.80;41.60;;;;;;20829;6773;69644;-90
2022/07/14 06:21:42;;;;;;;2.43;1.80;;;26.10;41.00;;;;;;20594;6772;309902;-87
2022/07/14 06:24:17;;;;;;;2.03;1.83;;;26.00;40.80;;;;;;20476;6772;309690;-87
2022/07/14 06:26:52;;;;;;;2.80;1.80;;;26.80;39.10;;;;;;20779;6772;117808;-87
2022/07/14 06:29:28;;;;;;;2.47;1.70;;;27.10;39.70;;;;;;20795;6772;119177;-86
2022/07/14 06:32:04;;;;;;;2.33;1.87;;;27.40;39.90;;;;;;20801;6772;118289;-87
2022/07/14 06:34:40;;;;;;;3.90;1.80;;;27.90;39.50;;;;;;20805;6772;117574;-90
2022/07/14 06:37:15;;;;;;;2.03;1.73;;;28.50;38.80;;;;;;20597;6772;280615;-89
2022/07/14 06:39:51;;;;;;;1.70;1.60;;;30.00;34.90;;;;;;20789;6772;118175;-90
2022/07/14 06:42:27;;;;;;;3.10;1.67;;;30.10;34.40;;;;;;20851;6504;305575;-90
2022/07/14 06:44:53;;;;;;;3.60;1.53;;;30.80;33.60;;;;;;20976;6775;116949;-90
2022/07/14 06:47:19;;;;;;;1.97;1.80;;;30.70;33.50;;;;;;20719;6790;306039;-90
2022/07/14 06:49:45;;;;;;;2.17;1.70;;;31.20;31.90;;;;;;20703;6790;306552;-90
2022/07/14 06:52:11;;;;;;;1.93;1.70;;;31.40;31.80;;;;;;20715;6852;117524;-91
2022/07/14 06:54:37;;;;;;;1.75;1.58;;;31.50;31.90;;;;;;20343;6838;340833;-91
2022/07/14 06:57:02;;;;;;;2.35;1.83;;;31.70;32.70;;;;;;20522;6846;307894;-91
2022/07/14 06:59:28;;;;;;;2.73;1.70;;;32.10;32.70;;;;;;20678;6863;117541;-90
2022/07/14 07:01:53;;;;;;;5.57;2.20;;;32.20;33.10;;;;;;20700;6848;114397;-91
2022/07/14 07:04:19;;;;;;;3.83;1.75;;;32.10;33.30;;;;;;20476;6848;311139;-90
2022/07/14 07:06:44;;;;;;;1.67;1.60;;;32.40;31.50;;;;;;20734;6863;120008;-90
2022/07/14 07:09:13;;;;;;;2.07;1.97;;;32.40;31.70;;;;;;20703;6858;118077;-91
2022/07/14 07:11:39;;;;;;;1.63;1.50;;;32.40;31.60;;;;;;20655;6878;120702;-91
2022/07/14 07:14:04;;;;;;;2.70;1.60;;;32.40;32.10;;;;;;20450;6874;289755;-90
2022/07/14 07:16:30;;;;;;;1.90;1.55;;;32.70;30.50;;;;;;20718;6867;192757;-91
2022/07/14 07:18:56;;;;;;;1.70;1.60;;;32.80;30.80;;;;;;20758;6844;118016;-90
2022/07/14 07:21:21;;;;;;;2.53;1.93;;;32.70;30.90;;;;;;20751;6847;117621;-90
2022/07/14 07:23:47;;;;;;;2.77;1.40;;;32.50;31.40;;;;;;20744;6848;117821;-91
2022/07/14 07:26:12;;;;;;;2.10;1.60;;;32.30;31.70;;;;;;20491;6853;280017;-90
2022/07/14 07:28:39;;;;;;;1.77;1.60;;;32.50;30.40;;;;;;20561;6838;310366;-90
2022/07/14 07:31:05;;;;;;;1.97;1.73;;;32.70;31.00;;;;;;20544;6838;279078;-90
2022/07/14 07:33:30;;;;;;;1.83;1.67;;;32.70;31.60;;;;;;20504;6853;308736;-89
2022/07/14 07:35:58;;;;;;;2.78;1.62;;;32.80;31.40;;;;;;20517;6853;338285;-91
2022/07/14 07:38:21;;;;;;;1.85;1.60;;;32.90;31.50;;;;;;20483;6853;341944;-91
2022/07/14 07:40:49;;;;;;;2.17;1.55;;;33.10;31.80;;;;;;20508;6860;337832;-90
2022/07/14 07:43:13;;;;;;;1.83;1.40;;;33.10;31.80;;;;;;20452;6878;308956;-90
2022/07/14 07:45:39;;;;;;;1.50;1.40;;;33.30;30.80;;;;;;20457;6875;336481;-90
2022/07/14 07:48:06;;;;;;;5.47;1.52;;;33.40;30.50;;;;;;20710;6862;117522;-90
2022/07/14 07:50:31;;;;;;;3.80;1.30;;;33.40;30.50;;;;;;20500;6862;306820;-89
2022/07/14 07:52:57;;;;;;;2.23;1.43;;;33.60;30.00;;;;;;20751;6860;121963;-91
2022/07/14 07:55:23;;;;;;;3.27;1.53;;;33.60;30.00;;;;;;20467;6861;278959;-90
2022/07/14 07:57:48;;;;;;;2.47;1.30;;;33.70;29.70;;;;;;20696;6862;117320;-90
2022/07/14 08:00:14;;;;;;;2.67;1.70;;;33.60;29.70;;;;;;20666;6862;117832;-90
2022/07/14 08:02:46;;;;;;;2.72;1.50;;;33.30;30.00;;;;;;20477;6864;279122;-90
2022/07/14 08:05:11;;;;;;;5.80;1.67;;;33.40;30.60;;;;;;20688;6864;117641;-91
2022/07/14 08:07:37;;;;;;;2.95;1.70;;;33.30;30.90;;;;;;20483;6864;322689;-90
2022/07/14 08:10:03;;;;;;;2.62;1.48;;;33.40;30.90;;;;;;20485;6864;331981;-91
2022/07/14 08:12:28;;;;;;;1.60;1.50;;;33.70;31.20;;;;;;20460;6864;340291;-90
2022/07/14 08:14:54;;;;;;;1.50;1.40;;;34.10;29.60;;;;;;20697;6864;117484;-90
2022/07/14 08:17:19;;;;;;;3.72;1.42;;;34.10;29.90;;;;;;20486;6864;280761;-91
2022/07/14 08:19:45;;;;;;;4.20;1.63;;;34.30;29.10;;;;;;20681;6864;117863;-90
2022/07/14 08:22:10;;;;;;;5.82;1.60;;;34.20;29.10;;;;;;20440;6879;279833;-90
2022/07/14 08:24:36;;;;;;;3.97;1.50;;;34.30;29.40;;;;;;20419;6879;312153;-90
2022/07/14 08:27:01;;;;;;;1.17;1.17;;;34.60;28.90;;;;;;20660;6879;117337;-90
2022/07/14 08:29:27;;;;;;;2.83;1.20;;;34.60;29.00;;;;;;20448;6879;279541;-90
2022/07/14 08:31:53;;;;;;;4.10;1.60;;;34.90;27.90;;;;;;20476;6869;309065;-90
2022/07/14 08:34:19;;;;;;;3.70;1.60;;;34.80;27.80;;;;;;20454;6871;281396;-91
2022/07/14 08:36:44;;;;;;;4.30;1.50;;;35.10;27.30;;;;;;20442;6881;344365;-90
2022/07/14 08:39:10;;;;;;;2.57;1.50;;;35.30;27.70;;;;;;20731;6851;117361;-90
2022/07/14 08:41:36;;;;;;;2.08;1.30;;;35.40;26.20;;;;;;20526;6851;337693;-91
2022/07/14 08:44:02;;;;;;;4.37;1.47;;;35.40;26.20;;;;;;20451;6875;298852;-92
2022/07/14 08:46:28;;;;;;;3.03;1.30;;;35.70;26.50;;;;;;20468;6863;309445;-91
2022/07/14 08:48:53;;;;;;;2.77;1.30;;;35.90;25.20;;;;;;20716;6860;117530;-89
2022/07/14 08:51:19;;;;;;;1.77;1.63;;;35.90;25.80;;;;;;20704;6874;67455;-90
2022/07/14 08:53:44;;;;;;;1.43;1.33;;;35.70;26.00;;;;;;20671;6874;117801;-90
2022/07/14 08:56:10;;;;;;;4.07;1.70;;;35.60;26.20;;;;;;20438;6860;309609;-92
2022/07/14 08:58:35;;;;;;;1.77;1.20;;;35.80;26.60;;;;;;20486;6858;309021;-90
2022/07/14 09:01:02;;;;;;;1.60;1.50;;;36.40;26.20;;;;;;20512;6858;278031;-93
2022/07/14 09:03:27;;;;;;;3.80;1.70;;;36.40;26.20;;;;;;20507;6856;278621;-91
2022/07/14 09:05:53;;;;;;;1.87;1.27;;;36.60;26.00;;;;;;20491;6857;338384;-90
2022/07/14 09:08:18;;;;;;;1.58;1.20;;;36.80;25.60;;;;;;20487;6857;294557;-91
2022/07/14 09:10:44;;;;;;;3.90;1.40;;;37.00;26.20;;;;;;20490;6858;279877;-91
2022/07/14 09:13:19;;;;;;;3.10;1.37;;;37.20;24.70;;;;;;20508;6848;311329;-90
2022/07/14 09:15:48;;;;;;;17.20;1.83;;;37.30;24.50;;;;;;20485;6863;298850;-90
2022/07/14 09:18:23;;;;;;;2.55;1.23;;;37.40;25.20;;;;;;20488;6856;337718;-89
2022/07/14 09:20:49;;;;;;;1.53;1.33;;;37.60;23.80;;;;;;20704;6860;117979;-91
2022/07/14 09:23:14;;;;;;;2.90;1.30;;;37.40;24.30;;;;;;20492;6860;309006;-90
2022/07/14 09:25:40;;;;;;;2.03;1.27;;;37.40;24.00;;;;;;20695;6860;118196;-89
2022/07/14 09:28:08;;;;;;;3.72;1.17;;;37.30;24.40;;;;;;20493;6860;309707;-91
2022/07/14 09:30:34;;;;;;;1.77;1.10;;;37.30;23.80;;;;;;20461;6863;308629;-89
2022/07/14 09:33:00;;;;;;;3.23;1.27;;;37.50;23.90;;;;;;20700;6863;117747;-90
2022/07/14 09:35:33;;;;;;;2.85;1.27;;;37.50;24.00;;;;;;20686;6863;117723;-90
2022/07/14 09:37:58;;;;;;;2.30;1.20;;;37.40;23.60;;;;;;20486;6862;308452;-90
2022/07/14 09:40:30;;;;;;;1.57;1.23;;;37.40;23.60;;;;;;20678;6862;117762;-91
2022/07/14 09:43:02;;;;;;;3.53;1.40;;;37.40;24.40;;;;;;20490;6862;279007;-89
2022/07/14 09:45:31;;;;;;;2.20;1.40;;;37.60;24.80;;;;;;20487;6862;279081;-92
2022/07/14 09:48:00;;;;;;;1.70;1.20;;;37.90;24.20;;;;;;20737;6862;117341;-89
2022/07/14 09:50:56;;;;;;;2.10;1.20;;;38.00;24.50;;;;;;20721;6860;117385;-90
2022/07/14 09:53:27;;;;;;;3.67;1.30;;;37.90;24.10;;;;;;20698;6860;117552;-91
2022/07/14 09:55:53;;;;;;;2.63;1.33;;;37.70;23.70;;;;;;20711;6856;117759;-89
2022/07/14 09:58:18;;;;;;;2.50;1.47;;;37.60;23.60;;;;;;20696;6856;118032;-88
2022/07/14 10:00:44;;;;;;;2.40;1.23;;;37.40;23.40;;;;;;20688;6856;118031;-90
2022/07/14 10:03:10;;;;;;;1.40;1.30;;;37.40;23.40;;;;;;20662;6856;118093;-90
2022/07/14 10:05:35;;;;;;;3.97;1.40;;;37.20;23.50;;;;;;20512;6856;279417;-90
2022/07/14 10:08:04;;;;;;;4.63;1.50;;;37.40;22.90;;;;;;20719;6856;117774;-90
2022/07/14 10:10:29;;;;;;;1.30;1.13;;;37.40;23.10;;;;;;20704;6856;117764;-90
2022/07/14 10:12:55;;;;;;;2.43;1.40;;;37.30;22.80;;;;;;20710;6856;117530;-91
2022/07/14 10:15:21;;;;;;;1.33;1.20;;;37.20;23.20;;;;;;20717;6854;117352;-90
2022/07/14 10:17:46;;;;;;;1.37;1.03;;;37.10;23.30;;;;;;20717;6855;117688;-91
2022/07/14 10:20:12;;;;;;;2.60;1.40;;;37.10;23.20;;;;;;20477;6856;308117;-91
2022/07/14 10:22:37;;;;;;;1.97;1.20;;;37.40;22.90;;;;;;20463;6869;304719;-91
2022/07/14 10:25:03;;;;;;;1.30;1.30;;;37.80;22.70;;;;;;20673;6871;118388;-91
2022/07/14 10:27:28;;;;;;;2.17;1.13;;;38.00;22.40;;;;;;20669;6871;120372;-91
2022/07/14 10:29:54;;;;;;;1.33;1.30;;;38.00;22.10;;;;;;20501;6871;280409;-91
2022/07/14 10:32:42;;;;;;;3.65;1.20;;;38.20;22.10;;;;;;20426;6871;319395;-91
2022/07/14 10:35:27;;;;;;;1.90;1.20;;;38.60;22.30;;;;;;20701;6860;117745;-92
2022/07/14 10:38:13;;;;;;;2.03;1.20;;;38.70;21.30;;;;;;20494;6860;278225;-93
2022/07/14 10:41:15;;;;;;;3.20;0.90;;;38.80;20.60;;;;;;20267;6860;309887;-92
2022/07/14 10:43:51;;;;;;;2.03;1.00;;;38.80;20.40;;;;;;20707;6860;122317;-92
2022/07/14 10:46:40;;;;;;;1.20;1.17;;;38.70;20.40;;;;;;20679;6866;117879;-91
2022/07/14 10:49:06;;;;;;;1.00;1.00;;;38.60;20.40;;;;;;20672;6871;117441;-92
2022/07/14 10:51:32;;;;;;;2.67;0.98;;;38.40;19.90;;;;;;20460;6871;308143;-91
2022/07/14 10:54:01;;;;;;;1.47;1.00;;;38.40;19.80;;;;;;20672;6871;117513;-92
2022/07/14 10:56:26;;;;;;;3.97;1.10;;;38.50;20.40;;;;;;20422;6871;309102;-92
2022/07/14 10:59:24;;;;;;;1.50;1.03;;;38.60;19.60;;;;;;20686;6871;117467;-92
2022/07/14 11:02:10;;;;;;;1.50;0.95;;;38.60;20.00;;;;;;20492;6860;340138;-92
2022/07/14 11:04:56;;;;;;;1.02;0.98;;;38.60;20.40;;;;;;20676;6866;117876;-91
2022/07/14 11:07:40;;;;;;;1.27;1.20;;;38.60;20.40;;;;;;20687;6866;117634;-92
2022/07/14 11:10:05;;;;;;;1.33;1.20;;;38.50;20.20;;;;;;20681;6866;116722;-91
2022/07/14 11:12:31;;;;;;;1.55;1.10;;;38.40;20.10;;;;;;20405;6866;287035;-91
2022/07/14 11:14:57;;;;;;;1.55;1.27;;;38.50;20.00;;;;;;20498;6860;278995;-91
2022/07/14 11:17:25;;;;;;;2.40;1.10;;;38.80;18.70;;;;;;20507;6856;311248;-91
2022/07/14 11:19:51;;;;;;;2.63;1.10;;;39.00;19.20;;;;;;20374;6871;280637;-92
2022/07/14 11:22:21;;;;;;;1.02;1.00;;;39.30;20.20;;;;;;20446;6871;337767;-90
2022/07/14 11:24:49;;;;;;;2.53;1.20;;;39.20;20.10;;;;;;20688;6871;117690;-91
2022/07/14 11:27:24;;;;;;;4.87;1.30;;;39.20;19.30;;;;;;20660;6869;117896;-90
2022/07/14 11:29:50;;;;;;;1.80;1.10;;;39.00;19.60;;;;;;20674;6870;117461;-90
2022/07/14 11:32:32;;;;;;;1.17;1.10;;;38.80;19.70;;;;;;20659;6871;144992;-90
2022/07/14 11:38:00;;;;;;;2.17;1.20;;;38.40;20.20;;;;;;20477;6860;281840;-91
2022/07/14 11:40:43;;;;;;;1.50;1.30;;;38.60;19.80;;;;;;20298;6856;119983;-92
2022/07/14 11:43:30;;;;;;;1.27;1.07;;;38.60;20.10;;;;;;20445;6871;307934;-89
2022/07/14 11:46:03;;;;;;;2.28;1.00;;;38.70;19.30;;;;;;20752;6860;116271;-92
2022/07/14 11:48:28;;;;;;;2.40;1.10;;;38.70;18.70;;;;;;20687;6860;127568;-92
2022/07/14 11:51:01;;;;;;;6.67;0.90;;;38.50;20.10;;;;;;20728;6860;66894;-92
2022/07/14 11:53:27;;;;;;;4.40;1.40;;;38.50;19.50;;;;;;20686;6866;117028;-91
2022/07/14 11:55:52;;;;;;;3.80;1.10;;;38.30;19.50;;;;;;20689;6866;117385;-91
2022/07/14 11:58:18;;;;;;;2.60;1.00;;;38.20;19.70;;;;;;20672;6866;143944;-90
2022/07/14 12:00:56;;;;;;;1.10;1.10;;;38.10;19.90;;;;;;20466;6866;308009;-90
2022/07/14 12:03:23;;;;;;;1.48;1.20;;;38.30;20.20;;;;;;20470;6866;308059;-91
2022/07/14 12:05:52;;;;;;;1.80;1.10;;;38.60;20.00;;;;;;20475;6866;280065;-90
2022/07/14 12:08:24;;;;;;;1.17;1.07;;;38.90;19.30;;;;;;20488;6860;310277;-91
2022/07/14 12:10:50;;;;;;;1.25;1.00;;;39.00;19.60;;;;;;20523;6856;279537;-91
2022/07/14 12:13:17;;;;;;;3.03;1.20;;;39.10;19.90;;;;;;20460;6871;281499;-91
2022/07/14 12:15:42;;;;;;;1.47;1.10;;;39.30;19.20;;;;;;20460;6871;279534;-91
2022/07/14 12:18:09;;;;;;;2.80;1.20;;;39.20;19.10;;;;;;20454;6871;303511;-89
2022/07/14 12:20:37;;;;;;;2.40;1.27;;;39.30;18.60;;;;;;20479;6860;281261;-91
2022/07/14 12:23:02;;;;;;;1.73;1.07;;;39.30;18.60;;;;;;20476;6866;278272;-92
2022/07/14 12:25:28;;;;;;;4.72;1.20;;;39.30;18.80;;;;;;20506;6860;309613;-89
2022/07/14 12:27:55;;;;;;;3.23;1.20;;;39.30;18.40;;;;;;20698;6856;120361;-91
2022/07/14 12:30:20;;;;;;;1.10;1.00;;;39.10;18.60;;;;;;20656;6871;117818;-91
2022/07/14 12:32:46;;;;;;;1.40;1.10;;;38.70;18.60;;;;;;20506;6860;278497;-92
2022/07/14 12:35:12;;;;;;;1.30;1.20;;;38.70;18.30;;;;;;20491;6860;277633;-93
2022/07/14 12:37:38;;;;;;;3.83;1.30;;;38.60;18.40;;;;;;20485;6866;279585;-92
2022/07/14 12:40:04;;;;;;;2.10;1.00;;;38.70;18.40;;;;;;20703;6865;116400;-93
2022/07/14 12:42:29;;;;;;;2.30;1.20;;;38.50;18.90;;;;;;20465;6866;308206;-93
2022/07/14 12:44:58;;;;;;;1.67;1.10;;;38.40;18.40;;;;;;20494;6866;278551;-92
2022/07/14 12:47:23;;;;;;;3.93;1.30;;;38.50;19.10;;;;;;20493;6866;278981;-93
2022/07/14 12:49:50;;;;;;;10.50;1.70;;;38.50;19.20;;;;;;20473;6871;339274;-90
2022/07/14 12:52:14;;;;;;;3.80;1.23;;;38.50;18.40;;;;;;20652;6875;122564;-90
2022/07/14 12:54:40;;;;;;;2.33;1.12;;;38.30;18.70;;;;;;20473;6866;334349;-91
2022/07/14 12:57:06;;;;;;;2.47;1.20;;;38.30;18.70;;;;;;20678;6871;118494;-92
2022/07/14 12:59:31;;;;;;;1.17;1.10;;;38.20;18.60;;;;;;20427;6871;312137;-90
2022/07/14 13:02:00;;;;;;;2.70;1.30;;;38.20;18.80;;;;;;20522;6848;338650;-92
2022/07/14 13:04:39;;;;;;;1.23;1.13;;;38.40;18.90;;;;;;20697;6857;120458;-91
2022/07/14 13:07:25;;;;;;;1.40;1.17;;;38.40;18.80;;;;;;20676;6867;119600;-91
2022/07/14 13:10:09;;;;;;;1.23;1.00;;;38.20;19.20;;;;;;20496;6852;340602;-90